Terminal Aerodrome Forecast
Issued by NWS

Home | Current Version | Previous Version | Text Only | Print | Product List | Glossary On
Versions: 1 2 3 4 5 6 7 8 9 10 11 12 13 14 15 16 17 18 19
000
FTUS46 KSGX 232335
TAFSNA
TAF
KSNA 232335Z 2400/2424 27008KT P6SM VCSH SCT040 SCT090 BKN220
     FM240500 VRB05KT P6SM SCT025 BKN040
     FM241900 26008KT P6SM VCSH BKN035=

USA.gov is the U.S. government's official web portal to all federal, state and local government web resources and services.